Time;durP1;ratioP1;P1;durP2;ratioP2;P2;SDS_P1;SDS_P2;PMS_P1;PMS_P2;Temp;Humidity;BMP_temperature;BMP_pressure;BME280_temperature;BME280_humidity;BME280_pressure;Samples;Min_cycle;Max_cycle;Signal;HPM_P1;HPM_P2
2021/11/05 00:02:19;;;;;;;24.83;14.27;;;6.30;99.90;;;;;;5119411;27;20051;-70
2021/11/05 00:04:46;;;;;;;25.83;14.43;;;6.30;99.90;;;;;;5119044;27;20047;-70
2021/11/05 00:07:13;;;;;;;30.63;15.18;;;6.30;99.90;;;;;;5118776;27;20107;-70
2021/11/05 00:09:40;;;;;;;29.20;14.68;;;6.20;99.90;;;;;;5119573;27;20096;-70
2021/11/05 00:12:08;;;;;;;29.77;15.20;;;6.30;99.90;;;;;;5119770;27;20077;-70
2021/11/05 00:14:36;;;;;;;30.63;15.98;;;6.30;99.90;;;;;;5119267;27;20048;-70
2021/11/05 00:17:04;;;;;;;42.67;18.58;;;6.20;99.90;;;;;;5118924;27;20055;-70
2021/11/05 00:19:31;;;;;;;39.72;18.00;;;6.20;99.90;;;;;;5119713;27;20055;-71
2021/11/05 00:21:58;;;;;;;34.83;16.63;;;6.20;99.90;;;;;;5118432;27;20092;-74
2021/11/05 00:24:25;;;;;;;33.40;17.05;;;6.30;99.90;;;;;;5118930;27;20043;-70
2021/11/05 00:26:53;;;;;;;34.35;16.98;;;6.30;99.90;;;;;;5118698;27;20051;-70
2021/11/05 00:29:20;;;;;;;31.23;16.45;;;6.30;99.90;;;;;;5118857;27;20564;-70
2021/11/05 00:31:47;;;;;;;26.75;14.45;;;6.30;99.90;;;;;;5118563;27;20614;-70
2021/11/05 00:34:17;;;;;;;30.65;15.13;;;6.40;99.90;;;;;;5119063;27;20066;-71
2021/11/05 00:36:45;;;;;;;28.83;15.77;;;6.30;99.90;;;;;;5117801;27;20051;-70
2021/11/05 00:39:12;;;;;;;26.55;14.65;;;6.30;99.90;;;;;;5119024;27;20051;-70
2021/11/05 00:41:39;;;;;;;26.17;14.40;;;6.30;99.90;;;;;;5118266;27;20039;-70
2021/11/05 00:44:06;;;;;;;27.67;15.15;;;6.30;99.90;;;;;;5118570;27;20082;-70
2021/11/05 00:46:33;;;;;;;29.67;15.20;;;6.30;99.90;;;;;;5118141;27;20091;-70
2021/11/05 00:49:01;;;;;;;29.52;15.63;;;6.30;99.90;;;;;;5118439;27;20051;-70
2021/11/05 00:51:29;;;;;;;30.80;15.68;;;6.30;99.90;;;;;;5118090;27;20050;-70
2021/11/05 00:53:56;;;;;;;29.63;14.65;;;6.30;99.90;;;;;;5118821;27;20077;-70
2021/11/05 00:56:25;;;;;;;30.63;16.73;;;6.40;99.90;;;;;;5117514;27;20047;-70
2021/11/05 00:58:52;;;;;;;26.70;14.57;;;6.40;99.90;;;;;;5119226;27;20070;-70
2021/11/05 01:01:19;;;;;;;28.20;15.02;;;6.40;99.90;;;;;;5117412;27;20511;-70
2021/11/05 01:03:46;;;;;;;26.83;15.15;;;6.30;99.90;;;;;;5117533;27;20043;-70
2021/11/05 01:06:14;;;;;;;26.00;14.90;;;6.30;99.90;;;;;;5116782;27;20458;-70
2021/11/05 01:08:43;;;;;;;30.00;15.63;;;6.30;99.90;;;;;;5117738;27;20108;-70
2021/11/05 01:11:10;;;;;;;27.38;15.45;;;6.30;99.90;;;;;;5116971;27;20055;-71
2021/11/05 01:13:37;;;;;;;30.42;15.02;;;6.30;99.90;;;;;;5116920;27;20080;-71
2021/11/05 01:16:05;;;;;;;32.28;15.52;;;6.30;99.90;;;;;;5117572;27;20078;-71
2021/11/05 01:18:32;;;;;;;31.85;16.15;;;6.30;99.90;;;;;;5116763;27;20420;-71
2021/11/05 01:21:00;;;;;;;26.85;16.08;;;6.30;99.90;;;;;;5118576;27;20079;-71
2021/11/05 01:23:27;;;;;;;29.52;16.25;;;6.30;99.90;;;;;;5117117;27;20050;-71
2021/11/05 01:25:55;;;;;;;33.25;17.00;;;6.30;99.90;;;;;;5116927;27;20043;-71
2021/11/05 01:28:22;;;;;;;30.42;16.45;;;6.30;99.90;;;;;;5117776;27;20093;-71
2021/11/05 01:30:49;;;;;;;28.80;15.82;;;6.30;99.90;;;;;;5115920;27;20058;-70
2021/11/05 01:33:17;;;;;;;30.95;16.42;;;6.30;99.90;;;;;;5116872;27;20095;-71
2021/11/05 01:35:44;;;;;;;30.35;16.40;;;6.30;99.90;;;;;;5116587;27;20055;-70
2021/11/05 01:38:11;;;;;;;32.33;18.55;;;6.30;99.90;;;;;;5116929;27;20047;-70
2021/11/05 01:40:41;;;;;;;35.92;18.08;;;6.20;99.90;;;;;;5117581;27;20397;-71
2021/11/05 01:43:09;;;;;;;31.98;16.95;;;6.20;99.90;;;;;;5116691;27;20047;-71
2021/11/05 01:45:36;;;;;;;29.70;15.57;;;6.30;99.90;;;;;;5116247;27;20557;-71
2021/11/05 01:48:04;;;;;;;32.85;15.20;;;6.20;99.90;;;;;;5117132;27;20126;-71
2021/11/05 01:50:31;;;;;;;28.77;15.57;;;6.30;99.90;;;;;;5117213;27;20112;-71
2021/11/05 01:52:58;;;;;;;30.55;16.33;;;6.30;99.90;;;;;;5116993;27;20055;-70
2021/11/05 01:55:26;;;;;;;31.08;16.77;;;6.30;99.90;;;;;;5117180;27;20047;-71
2021/11/05 01:57:53;;;;;;;31.52;16.40;;;6.30;99.90;;;;;;5117909;27;20055;-70
2021/11/05 02:00:23;;;;;;;31.77;17.67;;;6.30;99.90;;;;;;5116901;27;20100;-71
2021/11/05 02:02:51;;;;;;;31.77;17.58;;;6.30;99.90;;;;;;5117156;27;20446;-70
2021/11/05 02:05:18;;;;;;;32.33;17.00;;;6.30;99.90;;;;;;5116649;27;20051;-71
2021/11/05 02:07:50;;;;;;;31.60;17.45;;;6.30;99.90;;;;;;5117248;27;20457;-70
2021/11/05 02:10:18;;;;;;;33.95;17.25;;;6.30;99.90;;;;;;5116376;27;20144;-71
2021/11/05 02:12:46;;;;;;;37.85;16.95;;;6.30;99.90;;;;;;5115275;27;20047;-71
2021/11/05 02:15:14;;;;;;;29.25;16.58;;;6.30;99.90;;;;;;5115819;27;20512;-70
2021/11/05 02:17:44;;;;;;;28.38;14.25;;;6.30;99.90;;;;;;5114383;27;20059;-71
2021/11/05 02:20:12;;;;;;;29.10;15.73;;;6.30;99.90;;;;;;5115648;27;20503;-70
2021/11/05 02:22:42;;;;;;;27.20;14.88;;;6.30;99.90;;;;;;5115797;27;20055;-70
2021/11/05 02:25:10;;;;;;;26.48;15.25;;;6.30;99.90;;;;;;5114382;27;20051;-70
2021/11/05 02:27:38;;;;;;;30.80;16.30;;;6.30;99.90;;;;;;5115600;27;20090;-71
2021/11/05 02:30:08;;;;;;;29.58;16.60;;;6.30;99.90;;;;;;5114993;28;20051;-70
2021/11/05 02:32:35;;;;;;;30.30;14.73;;;6.30;99.90;;;;;;5114802;28;20058;-71
2021/11/05 02:35:04;;;;;;;29.27;15.15;;;6.30;99.90;;;;;;5113537;28;20567;-70
2021/11/05 02:37:31;;;;;;;27.85;14.90;;;6.30;99.90;;;;;;5113649;28;20096;-70
2021/11/05 02:39:59;;;;;;;29.85;14.75;;;6.20;99.90;;;;;;5114177;28;20075;-71
2021/11/05 02:42:27;;;;;;;28.98;14.98;;;6.30;99.90;;;;;;5114506;28;20055;-69
2021/11/05 02:44:54;;;;;;;29.05;15.68;;;6.30;99.90;;;;;;5115210;28;20123;-70
2021/11/05 02:47:24;;;;;;;26.90;14.60;;;6.20;99.90;;;;;;5113584;28;20043;-71
2021/11/05 02:49:52;;;;;;;26.70;13.70;;;6.20;99.90;;;;;;5114122;28;20055;-71
2021/11/05 02:52:19;;;;;;;27.45;14.50;;;6.20;99.90;;;;;;5114992;27;20075;-70
2021/11/05 02:54:47;;;;;;;25.85;13.80;;;6.20;99.90;;;;;;5114369;28;20532;-70
2021/11/05 02:57:16;;;;;;;28.42;14.85;;;6.20;99.90;;;;;;5114363;28;20328;-70
2021/11/05 02:59:43;;;;;;;27.92;15.13;;;6.20;99.90;;;;;;5114472;28;20070;-70
2021/11/05 03:02:10;;;;;;;27.17;15.30;;;6.20;99.90;;;;;;5113748;28;20079;-70
2021/11/05 03:04:39;;;;;;;23.27;11.93;;;6.20;99.90;;;;;;5113367;28;20058;-69
2021/11/05 03:07:08;;;;;;;27.65;13.27;;;6.20;99.90;;;;;;5114039;28;20051;-71
2021/11/05 03:09:38;;;;;;;24.33;13.18;;;6.20;99.90;;;;;;5114480;28;20104;-70
2021/11/05 03:12:06;;;;;;;21.48;12.32;;;6.20;99.90;;;;;;5114558;28;21114;-70
2021/11/05 03:14:35;;;;;;;23.92;12.23;;;6.20;99.90;;;;;;5113787;27;20051;-70
2021/11/05 03:17:02;;;;;;;23.90;12.75;;;6.20;99.90;;;;;;5113700;28;20059;-70
2021/11/05 03:19:29;;;;;;;24.17;12.38;;;6.10;99.90;;;;;;5114033;28;20118;-71
2021/11/05 03:21:56;;;;;;;28.00;13.60;;;6.10;99.90;;;;;;5114008;28;20047;-71
2021/11/05 03:24:23;;;;;;;25.05;12.38;;;6.10;99.90;;;;;;5113494;27;20051;-71
2021/11/05 03:26:50;;;;;;;24.50;12.32;;;6.10;99.90;;;;;;5112929;28;20108;-70
2021/11/05 03:29:18;;;;;;;21.38;11.70;;;6.20;99.90;;;;;;5114347;28;20071;-70
2021/11/05 03:31:46;;;;;;;22.88;12.05;;;6.20;99.90;;;;;;5113880;28;20096;-71
2021/11/05 03:34:13;;;;;;;24.30;11.65;;;6.20;99.90;;;;;;5115310;27;20053;-71
2021/11/05 03:36:40;;;;;;;23.60;12.18;;;6.10;99.90;;;;;;5116706;27;20051;-69
2021/11/05 03:39:08;;;;;;;22.30;11.43;;;6.20;99.90;;;;;;5118959;27;20111;-70
2021/11/05 03:41:35;;;;;;;22.73;11.95;;;6.20;99.90;;;;;;5118249;27;20096;-70
2021/11/05 03:44:03;;;;;;;20.65;11.20;;;6.20;99.90;;;;;;5117493;27;20051;-69
2021/11/05 03:46:34;;;;;;;23.52;12.63;;;6.10;99.90;;;;;;5117230;27;20111;-69
2021/11/05 03:49:03;;;;;;;22.67;12.20;;;6.20;99.90;;;;;;5117226;27;20598;-70
2021/11/05 03:51:30;;;;;;;24.02;12.40;;;6.20;99.90;;;;;;5117438;27;20099;-70
2021/11/05 03:53:56;;;;;;;22.35;12.65;;;6.20;99.90;;;;;;5117039;27;20047;-71
2021/11/05 03:56:24;;;;;;;21.23;12.25;;;6.20;99.90;;;;;;5116384;27;20082;-69
2021/11/05 03:58:52;;;;;;;21.02;11.45;;;6.20;99.90;;;;;;5117621;27;20063;-71
2021/11/05 04:01:20;;;;;;;23.98;12.30;;;6.20;99.90;;;;;;5116707;27;20439;-70
2021/11/05 04:03:47;;;;;;;21.15;12.10;;;6.20;99.90;;;;;;5115687;27;20516;-70
2021/11/05 04:06:17;;;;;;;20.95;11.80;;;6.20;99.90;;;;;;5118299;27;20179;-71
2021/11/05 04:08:44;;;;;;;23.88;11.90;;;6.20;99.90;;;;;;5117073;27;20042;-70
2021/11/05 04:11:11;;;;;;;25.27;13.10;;;6.20;99.90;;;;;;5117233;27;20083;-70
2021/11/05 04:13:38;;;;;;;22.88;11.57;;;6.20;99.90;;;;;;5116860;27;20527;-71
2021/11/05 04:16:06;;;;;;;22.02;12.57;;;6.20;99.90;;;;;;5117174;27;20055;-72
2021/11/05 04:18:33;;;;;;;21.80;11.93;;;6.20;99.90;;;;;;5115943;27;20096;-71
2021/11/05 04:21:00;;;;;;;19.95;11.00;;;6.20;99.90;;;;;;5116965;27;20545;-70
2021/11/05 04:23:29;;;;;;;23.55;12.00;;;6.20;99.90;;;;;;5116010;27;20059;-70
2021/11/05 04:25:56;;;;;;;22.38;11.85;;;6.20;99.90;;;;;;5116786;27;20690;-70
2021/11/05 04:28:24;;;;;;;18.05;10.77;;;6.30;99.90;;;;;;5117356;27;20055;-70
2021/11/05 04:30:51;;;;;;;22.73;11.60;;;6.20;99.90;;;;;;5117815;27;20051;-69
2021/11/05 04:33:18;;;;;;;24.23;11.15;;;6.30;99.90;;;;;;5117659;27;20054;-69
2021/11/05 04:35:46;;;;;;;25.50;11.88;;;6.20;99.90;;;;;;5116598;27;20104;-69
2021/11/05 04:38:13;;;;;;;20.83;10.90;;;6.20;99.90;;;;;;5116593;27;20051;-69
2021/11/05 04:40:42;;;;;;;21.85;12.48;;;6.20;99.90;;;;;;5117860;27;20050;-69
2021/11/05 04:43:10;;;;;;;21.40;11.70;;;6.20;99.90;;;;;;5119446;27;20051;-69
2021/11/05 04:45:37;;;;;;;20.98;11.73;;;6.20;99.90;;;;;;5116941;27;20043;-69
2021/11/05 04:48:05;;;;;;;20.65;10.63;;;6.20;99.90;;;;;;5118621;27;20114;-71
2021/11/05 04:50:32;;;;;;;19.52;11.35;;;6.20;99.90;;;;;;5119232;27;20103;-69
2021/11/05 04:52:59;;;;;;;21.83;11.90;;;6.20;99.90;;;;;;5114940;27;20479;-70
2021/11/05 04:55:26;;;;;;;20.42;11.73;;;6.20;99.90;;;;;;5116365;27;20096;-69
2021/11/05 04:57:55;;;;;;;25.83;12.27;;;6.20;99.90;;;;;;5115900;27;20093;-70
2021/11/05 05:00:24;;;;;;;22.67;11.70;;;6.20;99.90;;;;;;5116429;27;20055;-70
2021/11/05 05:02:52;;;;;;;18.13;10.77;;;6.20;99.90;;;;;;5116689;27;20198;-70
2021/11/05 05:05:19;;;;;;;18.92;10.07;;;6.10;99.90;;;;;;5114326;27;20104;-68
2021/11/05 05:07:47;;;;;;;22.42;11.23;;;6.20;99.90;;;;;;5115989;27;20071;-69
2021/11/05 05:10:15;;;;;;;18.42;10.80;;;6.10;99.90;;;;;;5115931;27;20051;-70
2021/11/05 05:12:42;;;;;;;19.30;10.00;;;6.20;99.90;;;;;;5114921;27;20122;-70
2021/11/05 05:15:12;;;;;;;19.20;10.60;;;6.20;99.90;;;;;;5114834;27;20047;-71
2021/11/05 05:17:40;;;;;;;22.67;11.07;;;6.10;99.90;;;;;;5115201;27;20044;-69
2021/11/05 05:20:09;;;;;;;17.27;9.95;;;6.20;99.90;;;;;;5116360;27;20127;-69
2021/11/05 05:22:37;;;;;;;17.80;9.43;;;6.20;99.90;;;;;;5115261;27;20062;-69
2021/11/05 05:25:06;;;;;;;17.90;10.07;;;6.20;99.90;;;;;;5115675;27;20061;-69
2021/11/05 05:27:33;;;;;;;15.82;9.18;;;6.20;99.90;;;;;;5114579;27;20086;-70
2021/11/05 05:30:01;;;;;;;16.17;9.63;;;6.20;99.90;;;;;;5115079;27;20051;-70
2021/11/05 05:32:29;;;;;;;17.85;10.25;;;6.20;99.90;;;;;;5114408;27;20515;-70
2021/11/05 05:34:58;;;;;;;16.75;9.73;;;6.20;99.90;;;;;;5116310;27;20050;-72
2021/11/05 05:37:25;;;;;;;20.88;11.45;;;6.20;99.90;;;;;;5115095;27;20504;-70
2021/11/05 05:39:55;;;;;;;17.70;9.93;;;6.20;99.90;;;;;;5115224;27;20043;-70
2021/11/05 05:42:22;;;;;;;18.00;10.60;;;6.20;99.90;;;;;;5114615;27;20054;-69
2021/11/05 05:44:49;;;;;;;18.33;9.65;;;6.20;99.90;;;;;;5114646;27;20050;-70
2021/11/05 05:47:16;;;;;;;18.00;11.50;;;6.20;99.90;;;;;;5115140;27;20456;-70
2021/11/05 05:49:48;;;;;;;19.02;10.80;;;6.20;99.90;;;;;;5115557;27;20515;-70
2021/11/05 05:52:15;;;;;;;19.40;11.27;;;6.20;99.90;;;;;;5115047;27;20061;-70
2021/11/05 05:54:42;;;;;;;16.85;9.77;;;6.20;99.90;;;;;;5115514;27;20050;-69
2021/11/05 05:57:10;;;;;;;19.77;11.25;;;6.20;99.90;;;;;;5113813;27;20527;-70
2021/11/05 05:59:37;;;;;;;18.73;9.93;;;6.20;99.90;;;;;;5113699;27;20159;-70
2021/11/05 06:02:04;;;;;;;20.15;11.35;;;6.20;99.90;;;;;;5114596;27;20564;-73
2021/11/05 06:04:32;;;;;;;18.45;11.15;;;6.20;99.90;;;;;;5114178;27;20450;-69
2021/11/05 06:07:01;;;;;;;19.83;10.70;;;6.20;99.90;;;;;;5113495;27;20057;-70
2021/11/05 06:09:28;;;;;;;18.38;11.32;;;6.20;99.90;;;;;;5114241;27;20079;-70
2021/11/05 06:11:55;;;;;;;18.80;10.85;;;6.20;99.90;;;;;;5113623;27;20742;-70
2021/11/05 06:14:22;;;;;;;22.13;11.18;;;6.20;99.90;;;;;;5114480;27;20069;-70
2021/11/05 06:16:49;;;;;;;18.95;10.93;;;6.30;99.90;;;;;;5113613;27;20097;-71
2021/11/05 06:19:16;;;;;;;19.40;11.75;;;6.30;99.90;;;;;;5115243;27;20107;-71
2021/11/05 06:21:43;;;;;;;20.90;12.15;;;6.30;99.90;;;;;;5115013;27;20043;-70
2021/11/05 06:24:11;;;;;;;20.15;11.23;;;6.30;99.90;;;;;;5114138;28;20107;-70
2021/11/05 06:26:38;;;;;;;19.35;11.30;;;6.30;99.90;;;;;;5112525;27;20051;-71
2021/11/05 06:29:05;;;;;;;21.55;12.73;;;6.30;99.90;;;;;;5114957;28;20469;-68
2021/11/05 06:31:34;;;;;;;21.88;12.90;;;6.30;99.90;;;;;;5114573;28;20051;-69
2021/11/05 06:34:01;;;;;;;22.15;12.40;;;6.30;99.90;;;;;;5113472;28;20058;-70
2021/11/05 06:36:28;;;;;;;21.70;11.93;;;6.30;99.90;;;;;;5113238;28;20051;-69
2021/11/05 06:38:56;;;;;;;20.05;11.48;;;6.30;99.90;;;;;;5113578;28;20495;-70
2021/11/05 06:41:25;;;;;;;23.92;13.70;;;6.30;99.90;;;;;;5113653;28;20063;-70
2021/11/05 06:43:52;;;;;;;23.10;12.80;;;6.30;99.90;;;;;;5115898;28;20078;-70
2021/11/05 06:46:20;;;;;;;20.65;12.10;;;6.30;99.90;;;;;;5112647;28;20463;-70
2021/11/05 06:48:47;;;;;;;19.88;11.15;;;6.30;99.90;;;;;;5113668;28;20054;-70
2021/11/05 06:51:14;;;;;;;23.50;12.82;;;6.30;99.90;;;;;;5114252;28;20039;-71
2021/11/05 06:53:41;;;;;;;23.08;12.05;;;6.30;99.90;;;;;;5113281;28;20053;-70
2021/11/05 06:56:08;;;;;;;19.50;11.50;;;6.40;99.90;;;;;;5114380;28;20138;-70
2021/11/05 06:58:40;;;;;;;23.85;12.65;;;6.40;99.90;;;;;;5114048;28;20059;-70
2021/11/05 07:01:08;;;;;;;20.17;11.60;;;6.30;99.90;;;;;;5114076;28;20111;-70
2021/11/05 07:03:35;;;;;;;20.40;12.48;;;6.40;99.90;;;;;;5114986;28;20524;-70
2021/11/05 07:06:02;;;;;;;22.95;13.10;;;6.40;99.90;;;;;;5113597;28;20047;-70
2021/11/05 07:08:31;;;;;;;21.42;12.52;;;6.40;99.90;;;;;;5113944;27;20055;-70
2021/11/05 07:10:58;;;;;;;23.02;13.10;;;6.40;99.90;;;;;;5118078;27;20487;-70
2021/11/05 07:13:25;;;;;;;23.27;13.18;;;6.40;99.90;;;;;;5117199;27;20055;-70
2021/11/05 07:15:55;;;;;;;22.15;13.02;;;6.40;99.90;;;;;;5117761;27;20503;-71
2021/11/05 07:18:22;;;;;;;28.88;12.50;;;6.40;99.90;;;;;;5117829;27;20055;-70
2021/11/05 07:20:50;;;;;;;23.30;13.90;;;6.50;99.90;;;;;;5118451;27;21336;-71
2021/11/05 07:23:17;;;;;;;23.75;13.52;;;6.50;99.90;;;;;;5117624;27;20061;-70
2021/11/05 07:25:45;;;;;;;23.40;13.73;;;6.60;99.90;;;;;;5117913;27;20130;-70
2021/11/05 07:28:12;;;;;;;23.83;13.32;;;6.50;99.90;;;;;;5117885;27;20054;-70
2021/11/05 07:30:39;;;;;;;20.38;12.43;;;6.50;99.90;;;;;;5118278;27;20042;-70
2021/11/05 07:33:07;;;;;;;22.55;13.02;;;6.60;99.90;;;;;;5118856;27;20055;-70
2021/11/05 07:35:34;;;;;;;23.35;12.95;;;6.60;99.90;;;;;;5117865;27;20200;-68
2021/11/05 07:38:02;;;;;;;25.73;14.45;;;6.60;99.90;;;;;;5118209;27;20059;-68
2021/11/05 07:40:29;;;;;;;22.25;13.38;;;6.50;99.90;;;;;;5121904;27;20106;-68
2021/11/05 07:42:56;;;;;;;26.27;14.32;;;6.60;99.90;;;;;;5122507;27;20051;-69
2021/11/05 07:45:25;;;;;;;24.77;13.90;;;6.60;99.90;;;;;;5122009;27;20134;-69
2021/11/05 07:47:55;;;;;;;23.30;13.30;;;6.60;99.90;;;;;;5121471;27;20054;-69
2021/11/05 07:50:25;;;;;;;24.70;13.13;;;6.70;99.90;;;;;;5122354;27;20068;-69
2021/11/05 07:52:52;;;;;;;25.38;14.82;;;6.70;99.90;;;;;;5120917;27;20560;-69
2021/11/05 07:55:19;;;;;;;21.15;12.55;;;6.70;99.90;;;;;;5121093;27;20123;-69
2021/11/05 07:57:46;;;;;;;23.42;12.18;;;6.70;99.90;;;;;;5122286;27;20039;-69
2021/11/05 08:00:14;;;;;;;25.33;12.40;;;6.70;99.90;;;;;;5122028;27;20055;-70
2021/11/05 08:02:41;;;;;;;21.90;12.95;;;6.70;99.90;;;;;;5122329;27;20082;-70
2021/11/05 08:05:09;;;;;;;22.33;12.23;;;6.70;99.90;;;;;;5121087;27;20066;-70
2021/11/05 08:07:37;;;;;;;23.73;12.82;;;6.70;99.90;;;;;;5121955;27;20050;-70
2021/11/05 08:10:05;;;;;;;22.60;13.05;;;6.70;99.90;;;;;;5122468;27;20051;-70
2021/11/05 08:12:33;;;;;;;24.65;13.35;;;6.80;99.90;;;;;;5121392;27;20081;-70
2021/11/05 08:15:00;;;;;;;23.38;13.50;;;6.70;99.90;;;;;;5121209;27;20492;-70
2021/11/05 08:17:27;;;;;;;25.67;14.98;;;6.70;99.90;;;;;;5119450;27;20050;-70
2021/11/05 08:19:54;;;;;;;23.13;13.52;;;6.70;99.90;;;;;;5118668;27;20267;-70
2021/11/05 08:22:21;;;;;;;28.65;15.15;;;6.80;99.90;;;;;;5117126;27;20047;-70
2021/11/05 08:24:52;;;;;;;24.45;13.45;;;6.80;99.90;;;;;;5118518;27;20568;-70
2021/11/05 08:27:19;;;;;;;23.85;13.35;;;6.80;99.90;;;;;;5116264;27;20155;-70
2021/11/05 08:29:47;;;;;;;24.13;13.68;;;6.80;99.90;;;;;;5116975;27;20453;-70
2021/11/05 08:32:14;;;;;;;22.73;13.82;;;6.70;99.90;;;;;;5117320;27;20047;-70
2021/11/05 08:34:42;;;;;;;24.40;13.18;;;6.70;99.90;;;;;;5115941;27;20104;-70
2021/11/05 08:37:09;;;;;;;22.75;13.27;;;6.90;99.90;;;;;;5117202;27;21086;-70
2021/11/05 08:39:36;;;;;;;21.42;12.80;;;6.90;99.90;;;;;;5118930;27;20676;-70
2021/11/05 08:42:05;;;;;;;24.20;13.63;;;6.90;99.90;;;;;;5116299;27;20141;-70
2021/11/05 08:44:33;;;;;;;23.83;12.00;;;7.00;99.90;;;;;;5116662;27;20475;-70
2021/11/05 08:47:00;;;;;;;24.73;13.95;;;6.80;99.90;;;;;;5116541;27;20051;-70
2021/11/05 08:49:28;;;;;;;21.90;12.90;;;6.90;99.90;;;;;;5119834;27;20639;-70
2021/11/05 08:51:55;;;;;;;25.98;13.45;;;7.00;99.90;;;;;;5120913;27;20089;-70
2021/11/05 08:54:22;;;;;;;21.38;12.50;;;7.10;99.90;;;;;;5120532;27;20457;-70
2021/11/05 08:56:49;;;;;;;21.23;11.70;;;7.10;99.90;;;;;;5119563;27;20091;-69
2021/11/05 08:59:20;;;;;;;21.55;12.27;;;7.10;99.90;;;;;;5120218;27;20531;-70
2021/11/05 09:01:47;;;;;;;21.90;12.27;;;7.10;99.90;;;;;;5120559;27;20051;-69
2021/11/05 09:04:16;;;;;;;23.63;12.38;;;7.20;99.90;;;;;;5119002;27;20078;-69
2021/11/05 09:06:44;;;;;;;20.10;12.07;;;7.20;99.90;;;;;;5120443;27;20051;-70
2021/11/05 09:09:11;;;;;;;21.95;13.27;;;7.30;99.90;;;;;;5119581;27;20122;-70
2021/11/05 09:11:39;;;;;;;19.13;11.77;;;7.40;99.90;;;;;;5119950;27;20051;-68
2021/11/05 09:14:06;;;;;;;21.48;12.40;;;7.50;99.90;;;;;;5119751;27;20134;-68
2021/11/05 09:16:35;;;;;;;21.45;10.30;;;7.60;99.90;;;;;;5119361;27;20047;-68
2021/11/05 09:19:03;;;;;;;18.00;10.93;;;7.50;99.90;;;;;;5120356;27;20457;-69
2021/11/05 09:21:31;;;;;;;23.10;12.27;;;7.60;99.90;;;;;;5120184;27;20392;-69
2021/11/05 09:23:58;;;;;;;21.23;11.60;;;7.50;99.90;;;;;;5119405;27;20055;-69
2021/11/05 09:26:27;;;;;;;16.10;10.32;;;7.50;99.90;;;;;;5120173;27;20050;-70
2021/11/05 09:28:54;;;;;;;17.85;10.68;;;7.40;99.90;;;;;;5118756;27;20051;-69
2021/11/05 09:31:21;;;;;;;19.15;11.90;;;7.40;99.90;;;;;;5118355;27;20055;-69
2021/11/05 09:33:50;;;;;;;22.20;11.00;;;7.40;99.90;;;;;;5119402;27;20055;-69
2021/11/05 09:36:17;;;;;;;20.15;11.10;;;7.50;99.90;;;;;;5118351;27;20128;-69
2021/11/05 09:38:45;;;;;;;20.40;11.18;;;7.50;99.90;;;;;;5118421;27;20910;-69
2021/11/05 09:41:12;;;;;;;20.27;11.63;;;7.50;99.90;;;;;;5119957;27;20334;-69
2021/11/05 09:43:41;;;;;;;19.75;11.45;;;7.60;99.90;;;;;;5118933;27;20047;-69
2021/11/05 09:46:08;;;;;;;19.85;11.88;;;7.50;99.90;;;;;;5119333;27;20104;-69
2021/11/05 09:48:38;;;;;;;19.45;10.93;;;7.50;99.90;;;;;;5120267;27;20483;-69
2021/11/05 09:51:08;;;;;;;20.40;12.05;;;7.50;99.90;;;;;;5119740;27;20051;-69
2021/11/05 09:53:37;;;;;;;18.60;11.02;;;7.60;99.90;;;;;;5118975;27;20519;-69
2021/11/05 09:56:07;;;;;;;19.83;11.80;;;7.50;99.90;;;;;;5119433;27;20051;-69
2021/11/05 09:58:34;;;;;;;23.23;12.95;;;7.50;99.90;;;;;;5118976;27;20066;-70
2021/11/05 10:01:01;;;;;;;22.48;12.38;;;7.60;99.90;;;;;;5119834;27;20051;-70
2021/11/05 10:03:28;;;;;;;23.27;13.48;;;7.60;99.90;;;;;;5119311;27;20381;-70
2021/11/05 10:05:56;;;;;;;23.58;13.05;;;7.70;99.90;;;;;;5119090;27;20050;-68
2021/11/05 10:08:29;;;;;;;26.33;14.25;;;7.70;99.90;;;;;;5119735;27;20051;-70
2021/11/05 10:10:56;;;;;;;22.73;13.30;;;7.80;99.90;;;;;;5119350;27;20388;-70
2021/11/05 10:13:25;;;;;;;27.42;14.35;;;7.80;99.90;;;;;;5119699;27;20564;-69
2021/11/05 10:15:54;;;;;;;24.83;13.60;;;7.80;99.90;;;;;;5118235;27;20054;-70
2021/11/05 10:18:23;;;;;;;23.30;13.55;;;7.90;99.90;;;;;;5119491;27;20453;-70
2021/11/05 10:21:08;;;;;;;24.25;14.20;;;7.90;99.90;;;;;;5117357;27;20058;-70
2021/11/05 10:23:38;;;;;;;22.50;12.88;;;8.00;99.90;;;;;;5118549;27;20376;-70
2021/11/05 10:26:07;;;;;;;23.88;13.27;;;8.00;99.90;;;;;;5118438;27;20103;-70
2021/11/05 10:28:38;;;;;;;23.25;12.18;;;8.00;99.90;;;;;;5118251;27;20484;-69
2021/11/05 10:31:07;;;;;;;23.83;11.98;;;7.90;99.90;;;;;;5119560;28;20050;-69
2021/11/05 10:33:38;;;;;;;27.15;13.30;;;7.90;99.90;;;;;;5118832;27;20948;-69
2021/11/05 10:36:07;;;;;;;21.52;12.48;;;7.80;99.90;;;;;;5118083;28;20054;-69
2021/11/05 10:38:38;;;;;;;23.73;13.35;;;7.80;99.90;;;;;;5117428;28;20394;-69
2021/11/05 10:41:09;;;;;;;37.42;14.23;;;7.80;99.90;;;;;;5117782;28;20051;-69
2021/11/05 10:43:42;;;;;;;27.30;13.82;;;7.90;99.90;;;;;;5121814;27;20086;-70
2021/11/05 10:46:23;;;;;;;21.58;12.13;;;8.10;99.90;;;;;;5122164;27;20047;-69
2021/11/05 10:48:51;;;;;;;24.02;14.00;;;8.00;99.90;;;;;;5122881;27;20555;-69
2021/11/05 10:51:22;;;;;;;24.02;13.30;;;8.00;99.90;;;;;;5123396;27;20050;-69
2021/11/05 10:53:51;;;;;;;25.05;13.57;;;8.20;99.90;;;;;;5122608;27;20100;-69
2021/11/05 10:56:19;;;;;;;23.10;12.55;;;8.10;99.90;;;;;;5122821;27;20047;-69
2021/11/05 10:58:56;;;;;;;26.58;12.65;;;8.10;99.90;;;;;;5122825;27;20051;-69
2021/11/05 11:01:25;;;;;;;21.98;12.18;;;8.30;99.90;;;;;;5121516;27;20086;-70
2021/11/05 11:03:54;;;;;;;25.38;13.48;;;8.10;99.90;;;;;;5121662;27;20235;-69
2021/11/05 11:06:23;;;;;;;23.20;13.50;;;8.20;99.90;;;;;;5121226;27;20051;-70
2021/11/05 11:08:54;;;;;;;22.35;12.35;;;8.30;99.90;;;;;;5121848;27;20051;-70
2021/11/05 11:11:27;;;;;;;22.33;12.93;;;8.40;99.90;;;;;;5121786;27;20142;-70
2021/11/05 11:13:56;;;;;;;23.73;12.80;;;8.70;99.90;;;;;;5122509;27;20175;-67
2021/11/05 11:16:27;;;;;;;24.63;12.52;;;8.80;99.90;;;;;;5120588;27;20499;-68
2021/11/05 11:18:57;;;;;;;24.20;13.10;;;8.70;99.90;;;;;;5120453;27;20513;-68
2021/11/05 11:21:27;;;;;;;22.02;12.38;;;8.70;99.90;;;;;;5117921;27;20381;-68
2021/11/05 11:23:56;;;;;;;22.70;13.18;;;8.70;99.90;;;;;;5120224;27;20405;-68
2021/11/05 11:26:24;;;;;;;24.88;13.70;;;8.80;99.90;;;;;;5118572;27;20449;-68
2021/11/05 11:28:51;;;;;;;25.02;12.20;;;8.60;99.90;;;;;;5118305;27;20475;-68
2021/11/05 11:31:19;;;;;;;24.85;13.98;;;8.40;99.90;;;;;;5122212;27;20099;-68
2021/11/05 11:33:47;;;;;;;23.92;13.98;;;8.40;99.90;;;;;;5122282;27;20086;-68
2021/11/05 11:36:15;;;;;;;22.73;14.02;;;8.50;99.90;;;;;;5120732;27;20051;-69
2021/11/05 11:38:42;;;;;;;24.63;13.68;;;8.50;99.90;;;;;;5121434;27;20047;-68
2021/11/05 11:41:12;;;;;;;25.42;12.90;;;8.50;99.90;;;;;;5120548;27;20441;-70
2021/11/05 11:43:40;;;;;;;21.40;12.25;;;8.50;99.90;;;;;;5120858;27;20110;-70
2021/11/05 11:46:07;;;;;;;22.83;12.27;;;8.50;99.90;;;;;;5121780;27;20082;-69
2021/11/05 11:48:42;;;;;;;23.08;12.45;;;8.50;99.90;;;;;;5120724;27;20051;-69
2021/11/05 11:51:41;;;;;;;21.67;11.88;;;8.60;99.90;;;;;;5120296;27;20133;-69
2021/11/05 11:54:29;;;;;;;21.73;12.18;;;8.80;99.90;;;;;;5120236;27;20059;-69
2021/11/05 11:57:11;;;;;;;22.50;11.90;;;9.10;99.90;;;;;;5120050;27;20047;-68
2021/11/05 11:59:39;;;;;;;26.52;12.95;;;8.90;99.90;;;;;;5120316;27;20051;-68
2021/11/05 12:02:31;;;;;;;26.55;13.27;;;8.80;99.90;;;;;;5119294;27;20138;-69
2021/11/05 12:05:24;;;;;;;23.98;13.90;;;9.00;99.90;;;;;;5119218;27;20055;-69
2021/11/05 12:08:22;;;;;;;25.45;13.88;;;8.90;99.90;;;;;;5117382;27;20415;-68
2021/11/05 12:10:52;;;;;;;25.10;12.57;;;9.20;99.90;;;;;;5116999;27;20127;-69
2021/11/05 12:13:51;;;;;;;24.55;12.98;;;8.90;99.90;;;;;;5117896;27;20656;-69
2021/11/05 12:16:25;;;;;;;19.25;10.70;;;8.70;99.90;;;;;;5115330;27;20461;-69
2021/11/05 12:19:17;;;;;;;21.63;12.43;;;8.70;99.90;;;;;;5116124;27;20509;-68
2021/11/05 12:21:50;;;;;;;19.08;10.73;;;8.90;99.90;;;;;;5117647;27;20112;-68
2021/11/05 12:24:29;;;;;;;22.13;13.20;;;9.00;99.90;;;;;;5116967;27;20047;-68
2021/11/05 12:27:03;;;;;;;23.13;12.73;;;9.00;99.90;;;;;;5116987;27;20055;-68
2021/11/05 12:29:54;;;;;;;22.58;12.27;;;9.00;99.90;;;;;;5116811;27;20043;-68
2021/11/05 12:32:33;;;;;;;21.45;11.95;;;9.10;99.90;;;;;;5115746;27;20095;-68
2021/11/05 12:35:19;;;;;;;22.15;12.27;;;9.20;99.90;;;;;;5114956;27;20051;-68
2021/11/05 12:38:07;;;;;;;24.40;12.50;;;9.20;99.90;;;;;;5115474;27;20083;-68
2021/11/05 12:40:39;;;;;;;20.77;10.65;;;9.00;99.90;;;;;;5116657;27;20116;-68
2021/11/05 12:43:08;;;;;;;23.17;11.45;;;9.10;99.90;;;;;;5116713;27;20142;-68
2021/11/05 12:45:52;;;;;;;27.02;12.30;;;9.20;99.90;;;;;;5118487;27;20128;-69
2021/11/05 12:48:47;;;;;;;19.70;11.02;;;9.40;99.90;;;;;;5118381;27;20411;-68